createdAt,value
2018-07-16T00:00:29.040Z,1.90
2018-07-16T00:01:29.058Z,1.80
2018-07-16T00:02:29.073Z,1.80
2018-07-16T00:03:29.093Z,1.70
2018-07-16T00:04:29.108Z,1.80
2018-07-16T00:05:29.127Z,1.60
2018-07-16T00:06:29.146Z,1.80
2018-07-16T00:07:29.163Z,2.00
2018-07-16T00:08:29.184Z,2.20
2018-07-16T00:09:29.201Z,1.90
2018-07-16T00:10:29.219Z,2.30
2018-07-16T00:11:29.239Z,2.10
2018-07-16T00:12:29.255Z,2.10
2018-07-16T00:13:29.275Z,1.90
2018-07-16T00:14:29.323Z,2.30
2018-07-16T00:15:29.308Z,2.40
2018-07-16T00:16:29.326Z,2.50
2018-07-16T00:17:29.345Z,2.30
2018-07-16T00:18:29.362Z,2.50
2018-07-16T00:19:29.380Z,2.90
2018-07-16T00:20:29.398Z,2.30
2018-07-16T00:21:29.417Z,2.20
2018-07-16T00:22:29.436Z,2.50
2018-07-16T00:23:29.457Z,2.30
2018-07-16T00:24:29.470Z,1.90
2018-07-16T00:25:29.487Z,2.50
2018-07-16T00:26:29.507Z,2.20
2018-07-16T00:27:29.524Z,2.00
2018-07-16T00:28:29.542Z,2.40
2018-07-16T00:29:29.566Z,2.10
2018-07-16T00:30:29.577Z,2.30
2018-07-16T00:31:29.596Z,1.70
2018-07-16T00:32:29.614Z,1.90
2018-07-16T00:33:29.632Z,2.10
2018-07-16T00:34:29.651Z,2.20
2018-07-16T00:35:29.670Z,2.30
2018-07-16T00:36:29.686Z,1.80
2018-07-16T00:37:29.706Z,2.20
2018-07-16T00:38:29.722Z,2.10
2018-07-16T00:39:29.740Z,2.00
2018-07-16T00:40:29.757Z,2.10
2018-07-16T00:41:29.777Z,2.10
2018-07-16T00:42:29.795Z,2.10
2018-07-16T00:43:29.812Z,2.30
2018-07-16T00:44:29.874Z,2.00
2018-07-16T00:45:29.848Z,2.40
2018-07-16T00:46:29.866Z,2.20
2018-07-16T00:47:29.883Z,2.30
2018-07-16T00:48:29.905Z,2.40
2018-07-16T00:49:29.923Z,2.50
2018-07-16T00:50:29.939Z,2.40
2018-07-16T00:51:29.957Z,2.00
2018-07-16T00:52:29.975Z,2.20
2018-07-16T00:53:29.993Z,2.20
2018-07-16T00:54:30.019Z,2.40
2018-07-16T00:55:30.030Z,2.30
2018-07-16T00:56:30.103Z,2.30
2018-07-16T00:57:30.080Z,2.10
2018-07-16T00:58:30.085Z,2.20
2018-07-16T00:59:30.101Z,2.20
2018-07-16T01:00:30.120Z,2.10
2018-07-16T01:01:30.140Z,2.00
2018-07-16T01:02:30.158Z,1.90
2018-07-16T01:03:30.179Z,1.90
2018-07-16T01:04:30.194Z,2.30
2018-07-16T01:05:30.213Z,2.20
2018-07-16T01:06:30.230Z,2.20
2018-07-16T01:07:30.248Z,2.30
2018-07-16T01:08:30.266Z,2.30
2018-07-16T01:09:30.285Z,2.20
2018-07-16T01:10:30.305Z,2.00
2018-07-16T01:11:30.322Z,2.20
2018-07-16T01:12:30.339Z,2.00
2018-07-16T01:13:30.358Z,2.00
2018-07-16T01:14:30.378Z,2.50
2018-07-16T01:15:30.393Z,2.00
2018-07-16T01:16:30.412Z,2.30
2018-07-16T01:17:30.429Z,2.30
2018-07-16T01:18:30.450Z,2.30
2018-07-16T01:19:30.465Z,2.00
2018-07-16T01:20:30.485Z,2.40
2018-07-16T01:21:30.502Z,2.30
2018-07-16T01:22:30.522Z,2.40
2018-07-16T01:23:30.539Z,2.30
2018-07-16T01:24:30.561Z,2.10
2018-07-16T01:25:30.578Z,2.00
2018-07-16T01:26:30.595Z,2.20
2018-07-16T01:27:30.612Z,1.90
2018-07-16T01:28:30.631Z,2.00
2018-07-16T01:29:30.648Z,2.20
2018-07-16T01:30:30.668Z,2.10
2018-07-16T01:31:30.685Z,1.90
2018-07-16T01:32:30.704Z,2.00
2018-07-16T01:33:30.722Z,1.90
2018-07-16T01:34:30.743Z,2.10
2018-07-16T01:35:30.760Z,2.00
2018-07-16T01:36:30.777Z,2.40
2018-07-16T01:37:30.795Z,2.00
2018-07-16T01:38:30.814Z,2.20
2018-07-16T01:39:30.834Z,2.10
2018-07-16T01:40:30.852Z,2.10
2018-07-16T01:41:30.869Z,2.20
2018-07-16T01:42:30.888Z,2.10
2018-07-16T01:43:30.907Z,2.10
2018-07-16T01:44:30.940Z,2.00
2018-07-16T01:45:30.941Z,2.00
2018-07-16T01:46:30.960Z,2.50
2018-07-16T01:47:30.977Z,2.10
2018-07-16T01:48:30.995Z,2.20
2018-07-16T01:49:31.015Z,2.30
2018-07-16T01:50:31.034Z,2.50
2018-07-16T01:51:31.050Z,2.40
2018-07-16T01:52:31.069Z,2.30
2018-07-16T01:53:31.088Z,2.00
2018-07-16T01:54:31.106Z,2.30
2018-07-16T01:55:31.129Z,2.10
2018-07-16T01:56:31.143Z,2.10
2018-07-16T01:57:31.161Z,2.30
2018-07-16T01:58:31.180Z,2.60
2018-07-16T01:59:31.200Z,2.00
2018-07-16T02:00:31.217Z,2.40
2018-07-16T02:01:31.237Z,2.30
2018-07-16T02:02:31.254Z,1.90
2018-07-16T02:03:31.269Z,2.30
2018-07-16T02:04:31.291Z,2.50
2018-07-16T02:05:31.308Z,2.30
2018-07-16T02:06:31.326Z,2.00
2018-07-16T02:07:31.345Z,2.20
2018-07-16T02:08:31.365Z,2.40
2018-07-16T02:09:31.380Z,2.30
2018-07-16T02:10:31.398Z,2.30
2018-07-16T02:11:31.415Z,2.20
2018-07-16T02:12:31.434Z,2.20
2018-07-16T02:13:31.453Z,2.10
2018-07-16T02:14:31.470Z,2.10
2018-07-16T02:15:31.489Z,2.40
2018-07-16T02:16:31.506Z,2.40
2018-07-16T02:17:31.525Z,2.50
2018-07-16T02:18:31.543Z,2.20
2018-07-16T02:19:31.561Z,2.10
2018-07-16T02:20:31.579Z,2.30
2018-07-16T02:21:31.598Z,2.50
2018-07-16T02:22:31.616Z,2.30
2018-07-16T02:23:31.632Z,2.00
2018-07-16T02:24:31.652Z,2.60
2018-07-16T02:25:31.670Z,2.20
2018-07-16T02:26:31.689Z,2.20
2018-07-16T02:27:31.705Z,2.20
2018-07-16T02:28:31.723Z,2.20
2018-07-16T02:29:31.741Z,2.50
2018-07-16T02:30:31.760Z,2.50
2018-07-16T02:31:31.777Z,2.20
2018-07-16T02:32:31.795Z,2.30
2018-07-16T02:33:31.814Z,2.20
2018-07-16T02:34:31.832Z,2.50
2018-07-16T02:35:31.850Z,2.20
2018-07-16T02:36:31.868Z,2.30
2018-07-16T02:37:31.887Z,2.40
2018-07-16T02:38:31.904Z,2.40
2018-07-16T02:39:31.921Z,2.10
2018-07-16T02:40:31.944Z,2.20
2018-07-16T02:41:31.959Z,2.40
2018-07-16T02:42:31.983Z,2.40
2018-07-16T02:43:31.995Z,2.10
2018-07-16T02:44:32.013Z,2.60
2018-07-16T02:45:32.028Z,2.30
2018-07-16T02:46:32.047Z,2.40
2018-07-16T02:47:32.066Z,2.40
2018-07-16T02:48:32.081Z,2.60
2018-07-16T02:49:32.100Z,2.60
2018-07-16T02:50:32.116Z,2.40
2018-07-16T02:51:32.134Z,2.60
2018-07-16T02:52:32.152Z,2.70
2018-07-16T02:53:32.173Z,2.60
2018-07-16T02:54:32.187Z,2.30
2018-07-16T02:55:32.208Z,2.50
2018-07-16T02:56:32.269Z,2.40
2018-07-16T02:57:32.244Z,2.40
2018-07-16T02:58:32.263Z,2.40
2018-07-16T02:59:32.315Z,2.30
2018-07-16T03:00:32.296Z,2.70
2018-07-16T03:01:32.311Z,2.20
2018-07-16T03:02:32.334Z,2.40
2018-07-16T03:03:32.348Z,2.60
2018-07-16T03:04:32.365Z,2.30
2018-07-16T03:05:32.381Z,2.30
2018-07-16T03:06:32.400Z,2.80
2018-07-16T03:07:32.419Z,2.30
2018-07-16T03:08:32.437Z,2.40
2018-07-16T03:09:32.451Z,2.30
2018-07-16T03:10:32.469Z,2.40
2018-07-16T03:11:32.489Z,2.40
2018-07-16T03:12:32.504Z,2.50
2018-07-16T03:13:32.523Z,2.50
2018-07-16T03:14:32.542Z,2.40
2018-07-16T03:15:32.556Z,2.50
2018-07-16T03:16:32.576Z,2.30
2018-07-16T03:17:32.594Z,2.10
2018-07-16T03:18:32.610Z,2.40
2018-07-16T03:19:32.631Z,2.50
2018-07-16T03:20:32.654Z,2.70
2018-07-16T03:21:32.665Z,2.40
2018-07-16T03:22:32.683Z,2.30
2018-07-16T03:23:32.697Z,2.50
2018-07-16T03:24:32.715Z,2.10
2018-07-16T03:25:32.732Z,2.30
2018-07-16T03:26:32.751Z,2.20
2018-07-16T03:27:32.769Z,2.20
2018-07-16T03:28:32.784Z,2.50
2018-07-16T03:29:32.801Z,2.10
2018-07-16T03:30:32.820Z,2.50
2018-07-16T03:31:32.838Z,2.40
2018-07-16T03:32:32.853Z,2.50
2018-07-16T03:33:32.873Z,2.20
2018-07-16T03:34:32.890Z,2.20
2018-07-16T03:35:32.907Z,2.30
2018-07-16T03:36:32.924Z,2.60
2018-07-16T03:37:32.944Z,2.40
2018-07-16T03:38:32.959Z,2.40
2018-07-16T03:39:32.978Z,2.30
2018-07-16T03:40:32.994Z,2.00
2018-07-16T03:41:33.012Z,2.40
2018-07-16T03:42:33.029Z,2.50
2018-07-16T03:43:33.045Z,2.60
2018-07-16T03:44:33.064Z,2.20
2018-07-16T03:45:33.082Z,2.20
2018-07-16T03:46:33.098Z,2.50
2018-07-16T03:47:33.115Z,2.10
2018-07-16T03:48:33.136Z,2.60
2018-07-16T03:49:33.150Z,2.20
2018-07-16T03:50:33.168Z,2.40
2018-07-16T03:51:33.186Z,2.20
2018-07-16T03:52:33.202Z,2.60
2018-07-16T03:53:33.224Z,2.30
2018-07-16T03:54:33.262Z,2.40
2018-07-16T03:55:33.255Z,2.50
2018-07-16T03:56:33.272Z,2.30
2018-07-16T03:57:33.291Z,2.60
2018-07-16T03:58:33.308Z,2.50
2018-07-16T03:59:33.324Z,2.30
2018-07-16T04:00:33.343Z,2.70
2018-07-16T04:01:33.414Z,2.40
2018-07-16T04:02:33.377Z,2.40
2018-07-16T04:03:33.394Z,2.50
2018-07-16T04:04:33.412Z,2.20
2018-07-16T04:05:33.430Z,2.30
2018-07-16T04:06:33.448Z,2.40
2018-07-16T04:07:33.465Z,2.40
2018-07-16T04:08:33.485Z,2.40
2018-07-16T04:09:33.498Z,2.40
2018-07-16T04:10:33.518Z,2.30
2018-07-16T04:11:33.536Z,2.30
2018-07-16T04:12:33.552Z,2.20
2018-07-16T04:13:33.572Z,2.20
2018-07-16T04:14:33.587Z,2.30
2018-07-16T04:15:33.604Z,2.60
2018-07-16T04:16:33.625Z,2.60
2018-07-16T04:17:33.643Z,2.40
2018-07-16T04:18:33.657Z,2.20
2018-07-16T04:19:33.674Z,2.60
2018-07-16T04:20:33.694Z,2.50
2018-07-16T04:21:33.710Z,2.60
2018-07-16T04:22:33.729Z,2.30
2018-07-16T04:23:33.745Z,2.10
2018-07-16T04:24:33.764Z,2.50
2018-07-16T04:25:33.782Z,2.40
2018-07-16T04:26:33.800Z,2.60
2018-07-16T04:27:33.813Z,2.60
2018-07-16T04:28:33.831Z,2.80
2018-07-16T04:29:33.852Z,2.50
2018-07-16T04:30:33.869Z,2.30
2018-07-16T04:31:33.885Z,2.60
2018-07-16T04:32:33.902Z,2.40
2018-07-16T04:33:33.921Z,2.40
2018-07-16T04:34:33.944Z,2.70
2018-07-16T04:35:33.954Z,2.20
2018-07-16T04:36:33.972Z,2.30
2018-07-16T04:37:33.990Z,2.70
2018-07-16T04:38:34.007Z,2.80
2018-07-16T04:39:34.023Z,2.60
2018-07-16T04:40:34.042Z,2.40
2018-07-16T04:41:34.059Z,2.60
2018-07-16T04:42:34.079Z,2.40
2018-07-16T04:43:34.094Z,2.60
2018-07-16T04:44:34.110Z,2.30
2018-07-16T04:45:34.128Z,2.50
2018-07-16T04:46:34.147Z,2.30
2018-07-16T04:47:34.164Z,2.50
2018-07-16T04:48:34.180Z,2.10
2018-07-16T04:49:34.199Z,2.20
2018-07-16T04:50:34.220Z,2.50
2018-07-16T04:51:34.234Z,2.30
2018-07-16T04:52:34.250Z,2.50
2018-07-16T04:53:34.274Z,2.30
2018-07-16T04:54:34.289Z,2.50
2018-07-16T04:55:34.302Z,2.80
2018-07-16T04:56:34.323Z,2.20
2018-07-16T04:57:34.339Z,2.40
2018-07-16T04:58:34.355Z,2.70
2018-07-16T04:59:34.375Z,2.30
2018-07-16T05:00:34.391Z,2.40
2018-07-16T05:01:34.407Z,2.40
2018-07-16T05:02:34.425Z,2.30
2018-07-16T05:03:34.488Z,2.50
2018-07-16T05:04:34.462Z,2.40
2018-07-16T05:05:34.478Z,2.60
2018-07-16T05:06:34.500Z,2.50
2018-07-16T05:07:34.513Z,2.70
2018-07-16T05:08:34.531Z,3.80
2018-07-16T05:09:34.549Z,3.80
2018-07-16T05:10:34.572Z,3.20
2018-07-16T05:11:34.584Z,2.90
2018-07-16T05:12:34.601Z,2.90
2018-07-16T05:13:34.618Z,2.60
2018-07-16T05:14:34.653Z,2.50
2018-07-16T05:15:34.652Z,2.90
2018-07-16T05:16:34.674Z,2.40
2018-07-16T05:17:34.689Z,2.60
2018-07-16T05:18:34.783Z,2.60
2018-07-16T05:19:34.724Z,3.20
2018-07-16T05:20:34.746Z,2.50
2018-07-16T05:21:34.762Z,2.50
2018-07-16T05:22:34.778Z,2.60
2018-07-16T05:23:34.795Z,2.30
2018-07-16T05:24:34.813Z,2.70
2018-07-16T05:25:34.833Z,2.70
2018-07-16T05:26:34.848Z,2.50
2018-07-16T05:27:34.866Z,2.70
2018-07-16T05:28:34.885Z,2.40
2018-07-16T05:29:34.901Z,2.30
2018-07-16T05:30:34.920Z,2.70
2018-07-16T05:31:34.975Z,2.50
2018-07-16T05:32:34.999Z,2.60
2018-07-16T05:33:34.973Z,2.30
2018-07-16T05:34:34.990Z,2.80
2018-07-16T05:35:35.008Z,2.30
2018-07-16T05:36:35.032Z,2.60
2018-07-16T05:37:35.048Z,2.60
2018-07-16T05:38:35.063Z,2.70
2018-07-16T05:39:35.079Z,2.60
2018-07-16T05:40:35.100Z,2.80
2018-07-16T05:41:35.115Z,2.60
2018-07-16T05:42:35.136Z,2.90
2018-07-16T05:43:35.151Z,2.90
2018-07-16T05:44:35.169Z,2.40
2018-07-16T05:45:35.188Z,2.90
2018-07-16T05:46:35.205Z,2.80
2018-07-16T05:47:35.222Z,2.50
2018-07-16T05:48:35.246Z,3.10
2018-07-16T05:49:35.258Z,2.50
2018-07-16T05:50:35.276Z,2.60
2018-07-16T05:51:35.294Z,2.60
2018-07-16T05:52:35.314Z,2.80
2018-07-16T05:53:35.331Z,2.80
2018-07-16T05:54:35.349Z,2.50
2018-07-16T05:55:35.365Z,2.50
2018-07-16T05:56:35.385Z,2.90
2018-07-16T05:57:35.408Z,2.80
2018-07-16T05:58:35.421Z,2.90
2018-07-16T05:59:35.439Z,2.60
2018-07-16T06:00:35.462Z,3.00
2018-07-16T06:01:35.475Z,3.10
2018-07-16T06:02:35.493Z,2.60
2018-07-16T06:03:35.514Z,2.90
2018-07-16T06:04:35.530Z,2.90
2018-07-16T06:05:35.546Z,2.80
2018-07-16T06:06:35.570Z,2.80
2018-07-16T06:07:35.584Z,2.70
2018-07-16T06:08:35.607Z,2.50
2018-07-16T06:09:35.619Z,2.60
2018-07-16T06:10:35.640Z,2.60
2018-07-16T06:11:35.656Z,2.60
2018-07-16T06:12:35.674Z,2.50
2018-07-16T06:13:35.692Z,2.50
2018-07-16T06:14:35.741Z,3.00
2018-07-16T06:15:35.727Z,2.50
2018-07-16T06:16:35.748Z,2.90
2018-07-16T06:17:35.765Z,2.70
2018-07-16T06:18:35.783Z,2.70
2018-07-16T06:19:35.801Z,2.90
2018-07-16T06:20:35.820Z,2.90
2018-07-16T06:21:35.837Z,2.80
2018-07-16T06:22:35.858Z,2.60
2018-07-16T06:23:35.874Z,2.70
2018-07-16T06:24:35.893Z,2.50
2018-07-16T06:25:35.916Z,2.40
2018-07-16T06:26:35.933Z,2.50
2018-07-16T06:27:35.947Z,2.60
2018-07-16T06:28:35.967Z,2.60
2018-07-16T06:29:35.984Z,2.60
2018-07-16T06:30:36.004Z,3.30
2018-07-16T06:31:36.021Z,3.10
2018-07-16T06:32:36.108Z,2.70
2018-07-16T06:33:36.059Z,3.00
2018-07-16T06:34:36.082Z,3.10
2018-07-16T06:35:36.096Z,3.10
2018-07-16T06:36:36.114Z,3.20
2018-07-16T06:37:36.135Z,2.90
2018-07-16T06:38:36.151Z,2.90
2018-07-16T06:39:36.259Z,2.90
2018-07-16T06:40:36.245Z,3.20
2018-07-16T06:41:36.614Z,2.80
2018-07-16T06:42:36.226Z,3.10
2018-07-16T06:43:36.247Z,2.90
2018-07-16T06:44:36.263Z,2.80
2018-07-16T06:45:36.281Z,3.10
2018-07-16T06:46:36.299Z,3.20
2018-07-16T06:47:36.316Z,3.00
2018-07-16T06:48:36.334Z,3.20
2018-07-16T06:49:36.355Z,2.90
2018-07-16T06:50:36.372Z,2.90
2018-07-16T06:51:36.392Z,3.20
2018-07-16T06:52:36.410Z,2.90
2018-07-16T06:53:36.429Z,3.10
2018-07-16T06:54:36.450Z,3.00
2018-07-16T06:55:36.467Z,3.20
2018-07-16T06:56:36.484Z,3.40
2018-07-16T06:57:36.502Z,3.50
2018-07-16T06:58:36.524Z,3.30
2018-07-16T06:59:36.539Z,3.40
2018-07-16T07:00:36.559Z,3.60
2018-07-16T07:01:36.578Z,3.40
2018-07-16T07:02:36.598Z,3.60
2018-07-16T07:03:36.616Z,3.50
2018-07-16T07:04:36.636Z,3.30
2018-07-16T07:05:36.655Z,3.30
2018-07-16T07:06:36.674Z,3.00
2018-07-16T07:07:36.694Z,2.80
2018-07-16T07:08:36.709Z,3.00
2018-07-16T07:09:36.727Z,2.90
2018-07-16T07:10:36.751Z,2.90
2018-07-16T07:11:36.766Z,2.60
2018-07-16T07:12:36.785Z,3.30
2018-07-16T07:13:36.804Z,3.10
2018-07-16T07:14:36.823Z,2.70
2018-07-16T07:15:36.841Z,2.70
2018-07-16T07:16:36.863Z,2.80
2018-07-16T07:17:36.880Z,2.70
2018-07-16T07:18:36.898Z,2.80
2018-07-16T07:19:36.917Z,2.80
2018-07-16T07:20:36.937Z,3.10
2018-07-16T07:21:36.958Z,2.90
2018-07-16T07:22:36.981Z,2.80
2018-07-16T07:23:36.997Z,3.00
2018-07-16T07:24:37.013Z,2.90
2018-07-16T07:25:37.099Z,2.30
2018-07-16T07:26:37.051Z,2.90
2018-07-16T07:27:37.070Z,3.30
2018-07-16T07:28:37.089Z,2.90
2018-07-16T07:29:37.108Z,2.90
2018-07-16T07:30:37.126Z,2.40
2018-07-16T07:31:37.162Z,2.90
2018-07-16T07:32:37.172Z,2.90
2018-07-16T07:33:37.183Z,2.60
2018-07-16T07:34:37.206Z,3.00
2018-07-16T07:35:37.308Z,3.30
2018-07-16T07:36:37.241Z,2.80
2018-07-16T07:37:37.260Z,2.50
2018-07-16T07:38:37.281Z,3.10
2018-07-16T07:39:37.296Z,3.00
2018-07-16T07:40:37.319Z,2.90
2018-07-16T07:41:37.337Z,2.80
2018-07-16T07:42:37.355Z,2.80
2018-07-16T07:43:37.374Z,2.70
2018-07-16T07:44:37.493Z,2.90
2018-07-16T07:45:37.414Z,2.60
2018-07-16T07:46:37.433Z,2.80
2018-07-16T07:47:37.512Z,2.50
2018-07-16T07:48:37.477Z,3.10
2018-07-16T07:49:37.490Z,2.60
2018-07-16T07:50:37.508Z,2.90
2018-07-16T07:51:37.528Z,2.80
2018-07-16T07:52:37.546Z,3.20
2018-07-16T07:53:37.566Z,3.10
2018-07-16T07:54:37.736Z,3.20
2018-07-16T07:55:37.624Z,3.00
2018-07-16T07:56:37.625Z,2.80
2018-07-16T07:57:37.646Z,2.90
2018-07-16T07:58:37.667Z,2.90
2018-07-16T07:59:37.681Z,2.80
2018-07-16T08:00:37.700Z,2.70
2018-07-16T08:01:37.722Z,2.70
2018-07-16T08:02:37.743Z,3.00
2018-07-16T08:03:37.759Z,2.80
2018-07-16T08:04:37.781Z,2.90
2018-07-16T08:05:37.800Z,2.70
2018-07-16T08:06:37.818Z,2.90
2018-07-16T08:07:37.837Z,2.80
2018-07-16T08:08:37.860Z,2.80
2018-07-16T08:09:37.877Z,3.00
2018-07-16T08:10:37.897Z,2.70
2018-07-16T08:11:37.917Z,2.70
2018-07-16T08:12:37.937Z,2.90
2018-07-16T08:13:37.975Z,2.50
2018-07-16T08:14:37.976Z,2.70
2018-07-16T08:15:37.996Z,2.60
2018-07-16T08:16:38.016Z,2.60
2018-07-16T08:17:38.039Z,2.60
2018-07-16T08:18:38.054Z,2.70
2018-07-16T08:19:38.073Z,2.70
2018-07-16T08:20:38.093Z,2.70
2018-07-16T08:21:38.114Z,2.90
2018-07-16T08:22:38.134Z,2.50
2018-07-16T08:23:38.154Z,2.70
2018-07-16T08:24:38.172Z,2.80
2018-07-16T08:25:38.192Z,2.40
2018-07-16T08:26:38.214Z,2.40
2018-07-16T08:27:38.232Z,2.90
2018-07-16T08:28:38.255Z,2.60
2018-07-16T08:29:38.272Z,2.60
2018-07-16T08:30:38.295Z,2.60
2018-07-16T08:31:38.313Z,3.00
2018-07-16T08:32:38.332Z,2.90
2018-07-16T08:33:38.396Z,2.80
2018-07-16T08:34:38.377Z,2.70
2018-07-16T08:35:38.393Z,2.60
2018-07-16T08:36:38.411Z,2.60
2018-07-16T08:37:38.433Z,2.70
2018-07-16T08:38:38.456Z,2.70
2018-07-16T08:39:38.471Z,2.80
2018-07-16T08:40:38.494Z,2.80
2018-07-16T08:41:38.512Z,2.70
2018-07-16T08:42:38.542Z,2.90
2018-07-16T08:43:38.653Z,2.40
2018-07-16T08:44:38.574Z,2.60
2018-07-16T08:45:38.655Z,2.80
2018-07-16T08:46:38.623Z,2.80
2018-07-16T08:47:38.637Z,2.40
2018-07-16T08:48:38.656Z,2.40
2018-07-16T08:49:38.677Z,2.50
2018-07-16T08:50:38.698Z,2.80
2018-07-16T08:51:38.718Z,2.60
2018-07-16T08:52:38.776Z,2.60
2018-07-16T08:53:38.759Z,2.70
2018-07-16T08:54:38.779Z,2.40
2018-07-16T08:55:38.797Z,2.70
2018-07-16T08:56:38.819Z,2.60
2018-07-16T08:57:38.840Z,3.00
2018-07-16T08:58:38.859Z,2.50
2018-07-16T08:59:38.882Z,2.90
2018-07-16T09:00:38.902Z,2.60
2018-07-16T09:01:38.921Z,2.60
2018-07-16T09:02:38.944Z,2.40
2018-07-16T09:03:38.962Z,2.60
2018-07-16T09:04:38.986Z,2.70
2018-07-16T09:05:39.003Z,2.70
2018-07-16T09:06:39.025Z,2.80
2018-07-16T09:07:39.047Z,2.80
2018-07-16T09:08:39.076Z,2.60
2018-07-16T09:09:39.089Z,2.60
2018-07-16T09:10:39.110Z,2.30
2018-07-16T09:11:39.133Z,3.00
2018-07-16T09:12:39.151Z,2.50
2018-07-16T09:13:39.258Z,2.40
2018-07-16T09:14:39.192Z,2.70
2018-07-16T09:15:39.214Z,2.50
2018-07-16T09:16:39.234Z,2.20
2018-07-16T09:17:39.257Z,2.80
2018-07-16T09:18:39.277Z,2.40
2018-07-16T09:19:39.300Z,2.50
2018-07-16T09:20:39.318Z,2.70
2018-07-16T09:21:39.340Z,2.60
2018-07-16T09:22:39.367Z,2.80
2018-07-16T09:23:39.384Z,2.60
2018-07-16T09:24:39.406Z,2.40
2018-07-16T09:25:39.465Z,2.60
2018-07-16T09:26:39.452Z,2.70
2018-07-16T09:27:39.470Z,2.50
2018-07-16T09:28:39.493Z,2.40
2018-07-16T09:29:39.513Z,2.50
2018-07-16T09:30:39.534Z,2.20
2018-07-16T09:31:39.556Z,2.40
2018-07-16T09:32:39.619Z,2.40
2018-07-16T09:33:39.599Z,2.50
2018-07-16T09:34:39.621Z,2.50
2018-07-16T09:35:39.642Z,2.30
2018-07-16T09:36:39.665Z,2.50
2018-07-16T09:37:39.687Z,2.60
2018-07-16T09:38:39.708Z,2.30
2018-07-16T09:39:39.727Z,2.60
2018-07-16T09:40:39.748Z,2.40
2018-07-16T09:41:39.769Z,2.80
2018-07-16T09:42:39.792Z,2.40
2018-07-16T09:43:39.813Z,2.40
2018-07-16T09:44:39.834Z,2.50
2018-07-16T09:45:39.857Z,2.50
2018-07-16T09:46:39.879Z,2.60
2018-07-16T09:47:39.898Z,2.70
2018-07-16T09:48:39.921Z,2.40
2018-07-16T09:49:39.946Z,2.20
2018-07-16T09:50:39.965Z,2.50
2018-07-16T09:51:39.989Z,2.10
2018-07-16T09:52:40.016Z,2.40
2018-07-16T09:53:40.030Z,2.50
2018-07-16T09:54:40.050Z,2.50
2018-07-16T09:55:40.075Z,2.30
2018-07-16T09:56:40.095Z,2.50
2018-07-16T09:57:40.115Z,2.70
2018-07-16T09:58:40.138Z,2.50
2018-07-16T09:59:40.159Z,2.30
2018-07-16T10:00:40.183Z,2.60
2018-07-16T10:01:40.203Z,2.60
2018-07-16T10:02:40.225Z,2.40
2018-07-16T10:03:40.249Z,2.50
2018-07-16T10:04:40.269Z,2.40
2018-07-16T10:05:40.291Z,2.40
2018-07-16T10:06:40.312Z,2.30
2018-07-16T10:07:40.332Z,2.40
2018-07-16T10:08:40.358Z,2.60
2018-07-16T10:09:40.378Z,2.70
2018-07-16T10:10:40.402Z,2.70
2018-07-16T10:11:40.424Z,2.40
2018-07-16T10:12:40.447Z,2.40
2018-07-16T10:13:40.469Z,2.50
2018-07-16T10:14:40.490Z,2.30
2018-07-16T10:15:40.512Z,2.40
2018-07-16T10:16:40.532Z,2.50
2018-07-16T10:17:40.555Z,2.50
2018-07-16T10:18:40.578Z,2.30
2018-07-16T10:19:40.601Z,2.50
2018-07-16T10:20:40.729Z,2.30
2018-07-16T10:21:40.647Z,2.10
2018-07-16T10:22:40.672Z,2.20
2018-07-16T10:23:40.689Z,2.40
2018-07-16T10:24:40.716Z,2.40
2018-07-16T10:25:40.794Z,2.10
2018-07-16T10:26:40.762Z,2.50
2018-07-16T10:27:40.781Z,2.40
2018-07-16T10:28:40.803Z,2.20
2018-07-16T10:29:40.825Z,2.20
2018-07-16T10:30:40.848Z,2.50
2018-07-16T10:31:40.871Z,2.40
2018-07-16T10:32:40.894Z,2.40
2018-07-16T10:33:40.946Z,2.00
2018-07-16T10:34:40.938Z,2.20
2018-07-16T10:35:40.960Z,2.40
2018-07-16T10:36:40.986Z,2.20
2018-07-16T10:37:41.008Z,2.00
2018-07-16T10:38:41.032Z,1.90
2018-07-16T10:39:41.053Z,2.10
2018-07-16T10:40:41.072Z,2.40
2018-07-16T10:41:41.098Z,2.50
2018-07-16T10:42:41.119Z,2.20
2018-07-16T10:43:41.142Z,2.50
2018-07-16T10:44:41.163Z,2.30
2018-07-16T10:45:41.187Z,2.10
2018-07-16T10:46:41.211Z,2.10
2018-07-16T10:47:41.238Z,2.30
2018-07-16T10:48:41.256Z,2.20
2018-07-16T10:49:41.290Z,2.10
2018-07-16T10:50:41.303Z,2.10
2018-07-16T10:51:41.327Z,1.80
2018-07-16T10:52:41.350Z,1.90
2018-07-16T10:53:41.372Z,2.00
2018-07-16T10:54:41.393Z,1.90
2018-07-16T10:55:41.417Z,1.90
2018-07-16T10:56:41.439Z,2.20
2018-07-16T10:57:41.462Z,2.00
2018-07-16T10:58:41.484Z,2.30
2018-07-16T10:59:41.508Z,1.80
2018-07-16T11:00:41.530Z,2.10
2018-07-16T11:01:41.554Z,1.90
2018-07-16T11:02:41.576Z,2.40
2018-07-16T11:03:41.599Z,2.00
2018-07-16T11:04:41.622Z,1.80
2018-07-16T11:05:41.649Z,2.10
2018-07-16T11:06:41.669Z,1.90
2018-07-16T11:07:41.691Z,2.00
2018-07-16T11:08:41.733Z,2.00
2018-07-16T11:09:41.737Z,2.20
2018-07-16T11:10:41.763Z,2.00
2018-07-16T11:11:41.783Z,2.10
2018-07-16T11:12:41.808Z,2.00
2018-07-16T11:13:41.832Z,2.20
2018-07-16T11:14:41.854Z,2.20
2018-07-16T11:15:41.878Z,2.20
2018-07-16T11:16:41.900Z,2.00
2018-07-16T11:17:41.924Z,2.00
2018-07-16T11:18:41.948Z,2.00
2018-07-16T11:19:41.975Z,1.90
2018-07-16T11:20:41.994Z,1.90
2018-07-16T11:21:42.017Z,1.70
2018-07-16T11:22:42.042Z,1.90
2018-07-16T11:23:42.064Z,2.00
2018-07-16T11:24:42.089Z,2.00
2018-07-16T11:25:42.111Z,1.60
2018-07-16T11:26:42.135Z,2.00
2018-07-16T11:27:42.159Z,1.70
2018-07-16T11:28:42.182Z,2.20
2018-07-16T11:29:42.205Z,1.80
2018-07-16T11:30:42.232Z,2.00
2018-07-16T11:31:42.253Z,1.90
2018-07-16T11:32:42.275Z,2.10
2018-07-16T11:33:42.302Z,2.30
2018-07-16T11:34:42.323Z,2.20
2018-07-16T11:35:42.425Z,2.00
2018-07-16T11:36:42.369Z,1.90
2018-07-16T11:37:42.393Z,1.90
2018-07-16T11:38:42.419Z,2.10
2018-07-16T11:39:42.440Z,2.00
2018-07-16T11:40:42.465Z,2.00
2018-07-16T11:41:43.490Z,2.00
2018-07-16T11:42:42.512Z,2.10
2018-07-16T11:43:42.536Z,2.00
2018-07-16T11:44:42.559Z,2.00
2018-07-16T11:45:42.585Z,2.10
2018-07-16T11:46:42.609Z,2.10
2018-07-16T11:47:42.637Z,2.10
2018-07-16T11:48:42.657Z,2.00
2018-07-16T11:49:42.683Z,2.20
2018-07-16T11:50:42.704Z,2.00
2018-07-16T11:51:42.728Z,2.40
2018-07-16T11:52:42.753Z,2.10
2018-07-16T11:53:42.777Z,2.10
2018-07-16T11:54:42.803Z,2.40
2018-07-16T11:55:42.826Z,2.30
2018-07-16T11:56:42.852Z,2.00
2018-07-16T11:57:42.876Z,1.90
2018-07-16T11:58:42.906Z,2.10
2018-07-16T11:59:42.925Z,2.00
2018-07-16T12:00:42.951Z,2.30
2018-07-16T12:01:42.993Z,2.30
2018-07-16T12:02:42.997Z,2.00
2018-07-16T12:03:43.021Z,1.90
2018-07-16T12:04:43.050Z,2.20
2018-07-16T12:05:43.070Z,2.00
2018-07-16T12:06:43.098Z,2.10
2018-07-16T12:07:43.116Z,1.90
2018-07-16T12:08:43.144Z,2.10
2018-07-16T12:09:43.164Z,2.20
2018-07-16T12:10:43.188Z,2.30
2018-07-16T12:11:43.214Z,2.10
2018-07-16T12:12:43.305Z,2.30
2018-07-16T12:13:43.261Z,2.00
2018-07-16T12:14:43.288Z,2.00
2018-07-16T12:15:43.316Z,2.10
2018-07-16T12:16:43.332Z,2.10
2018-07-16T12:17:43.358Z,2.10
2018-07-16T12:18:43.382Z,2.00
2018-07-16T12:19:43.405Z,2.20
2018-07-16T12:20:43.430Z,2.10
2018-07-16T12:21:43.453Z,2.20
2018-07-16T12:22:43.478Z,2.10
2018-07-16T12:23:43.500Z,2.20
2018-07-16T12:24:43.522Z,2.40
2018-07-16T12:25:43.547Z,2.30
2018-07-16T12:26:43.573Z,2.20
2018-07-16T12:27:43.596Z,1.90
2018-07-16T12:28:43.623Z,2.10
2018-07-16T12:29:43.648Z,2.10
2018-07-16T12:30:43.675Z,2.20
2018-07-16T12:31:43.692Z,2.20
2018-07-16T12:32:43.722Z,2.10
2018-07-16T12:33:43.741Z,2.00
2018-07-16T12:34:43.770Z,2.10
2018-07-16T12:35:43.790Z,1.90
2018-07-16T12:36:43.816Z,2.10
2018-07-16T12:37:43.840Z,2.00
2018-07-16T12:38:43.869Z,2.00
2018-07-16T12:39:43.892Z,2.10
2018-07-16T12:40:43.911Z,2.10
2018-07-16T12:41:44.003Z,2.20
2018-07-16T12:42:43.962Z,2.10
2018-07-16T12:43:43.987Z,2.20
2018-07-16T12:44:44.011Z,2.40
2018-07-16T12:45:44.037Z,1.90
2018-07-16T12:46:44.067Z,2.20
2018-07-16T12:47:44.086Z,2.10
2018-07-16T12:48:44.114Z,2.10
2018-07-16T12:49:44.136Z,2.10
2018-07-16T12:50:44.160Z,2.10
2018-07-16T12:51:44.186Z,2.50
2018-07-16T12:52:44.212Z,2.00
2018-07-16T12:53:44.237Z,2.30
2018-07-16T12:54:44.263Z,2.10
2018-07-16T12:55:44.286Z,2.10
2018-07-16T12:56:44.313Z,2.00
2018-07-16T12:57:44.337Z,2.20
2018-07-16T12:58:44.363Z,2.40
2018-07-16T12:59:44.390Z,2.30
2018-07-16T13:00:44.417Z,2.00
2018-07-16T13:01:44.437Z,2.10
2018-07-16T13:02:44.461Z,2.20
2018-07-16T13:03:44.488Z,2.10
2018-07-16T13:04:44.514Z,2.20
2018-07-16T13:05:44.539Z,2.10
2018-07-16T13:06:44.563Z,1.90
2018-07-16T13:07:44.588Z,2.10
2018-07-16T13:08:44.615Z,1.90
2018-07-16T13:09:44.638Z,2.10
2018-07-16T13:10:44.665Z,2.00
2018-07-16T13:11:44.690Z,2.00
2018-07-16T13:12:44.715Z,1.70
2018-07-16T13:13:44.744Z,2.30
2018-07-16T13:14:44.772Z,2.00
2018-07-16T13:15:44.797Z,2.20
2018-07-16T13:16:44.819Z,2.40
2018-07-16T13:17:44.844Z,2.00
2018-07-16T13:18:44.869Z,2.10